MV Moseldijk — PBWK — position and weather

sailwx.info

Track history (hours):
 
Tides and Currents Weather Stations Pressure Air Temp Water Temp Dewpoint Dewpoint Depression Visibility Wind Speed Wind Dir Waves Ship Positions

MV Moseldijk

Last reported at 2016-Jul-01 12:28 UTC. Time now 2016-Jul-01 15:29 UTC.
Position N 50°04' W 005°00'.

Length 90 m; draft 4.2 m.

Type: Cargo ship. MMSI: 246644000.

Date/timePositionNaut miles runAvg speedWind from/ knotsBaromVisibWave heightAir tempDewpointWater temp
2016-Jul-01 12:28N 50°04' W 005°00'0 0.0
2016-Jul-01 04:22N 50°04' W 005°00'0 0.0
2016-Jul-01 02:31N 50°04' W 005°00'0 0.0
2016-Jul-01 01:19N 50°04' W 005°00'0 0.0
2016-Jun-30 23:16N 50°04' W 005°00'0 0.0
2016-Jun-30 18:10N 50°04' W 005°00'0 0.0
2016-Jun-30 17:10N 50°04' W 005°00'0 0.0
2016-Jun-30 15:28N 50°04' W 005°00'0 0.0
2016-Jun-30 14:25N 50°04' W 005°00'0 0.0
2016-Jun-30 13:31N 50°04' W 005°00'0 0.0
2016-Jun-30 12:31N 50°04' W 005°00'0 0.0
2016-Jun-30 10:22N 50°04' W 005°00'0 0.0
2016-Jun-30 09:16N 50°04' W 005°00'0 0.0
2016-Jun-30 08:31N 50°04' W 005°00'0 0.0
2016-Jun-30 07:25N 50°04' W 005°00'0 0.0
2016-Jun-30 06:31N 50°04' W 005°00'0 0.0
2016-Jun-30 05:22N 50°04' W 005°00'0 0.0
2016-Jun-30 04:31N 50°04' W 005°00'0 0.0
2016-Jun-30 03:31N 50°04' W 005°00'0 0.0
2016-Jun-30 00:28N 50°04' W 005°00'0 0.0
2016-Jun-29 23:25N 50°04' W 005°00'0 0.0
2016-Jun-29 22:31N 50°04' W 005°00'0 0.0
2016-Jun-29 20:31N 50°04' W 005°00'0 0.0
2016-Jun-29 16:22N 50°04' W 005°00'0 0.0
2016-Jun-29 15:04N 50°04' W 005°00'0 0.0
2016-Jun-29 14:22N 50°04' W 005°00'0 0.0
2016-Jun-29 13:31N 50°04' W 005°00'0 0.0
2016-Jun-29 12:28N 50°04' W 005°00'0 0.0
2016-Jun-29 11:13N 50°04' W 005°00'0 0.0
2016-Jun-29 10:25N 50°04' W 005°00'0 0.0
2016-Jun-29 09:10N 50°04' W 005°00'0 0.0
2016-Jun-29 06:04N 50°04' W 005°00'0 0.0
2016-Jun-29 02:31N 50°04' W 005°00'0 0.0
2016-Jun-29 01:31N 50°04' W 005°00'0 0.0
2016-Jun-28 13:25N 50°04' W 005°00'0 0.1
2016-Jun-28 12:28N 50°04' W 005°00'0 0.0
2016-Jun-28 11:25N 50°04' W 005°00'0 0.0
2016-Jun-28 10:31N 50°04' W 005°00'0 0.0
2016-Jun-28 09:28N 50°04' W 005°00'0 0.0
2016-Jun-28 08:28N 50°04' W 005°00'0 0.0
2016-Jun-28 07:31N 50°04' W 005°00'0 0.1
2016-Jun-28 06:22N 50°04' W 005°00'0 0.0
2016-Jun-28 00:22N 50°04' W 005°00'0 0.0
2016-Jun-27 23:16N 50°04' W 005°00'0 0.0
2016-Jun-27 22:28N 50°04' W 005°00'0 0.0
2016-Jun-27 21:28N 50°04' W 005°00'0 0.0
2016-Jun-27 17:28N 50°04' W 005°00'3 3.8
2016-Jun-27 16:33N 50°01' W 005°02'252 7.6
2016-Jun-26 07:33N 54°13' W 005°20'8 7.8
2016-Jun-26 06:33N 54°20' W 005°18'7 7.1
2016-Jun-26 05:33N 54°27' W 005°17'7 6.6
2016-Jun-26 04:33N 54°34' W 005°17'7 7.0
2016-Jun-26 03:34N 54°41' W 005°16'8 7.8
2016-Jun-26 02:34N 54°49' W 005°16'8 8.5
2016-Jun-26 01:33N 54°57' W 005°15'  
2016-Jun-23 14:04N 55°37' W 004°47'5 8.7
2016-Jun-23 13:30N 55°38' W 004°56'1 1.3
2016-Jun-23 12:30N 55°38' W 004°58'3311.0
2016-Jun-23 09:33N 55°06' W 005°10'10 9.8
2016-Jun-23 08:34N 54°57' W 005°16'1010.0
2016-Jun-23 07:34N 54°47' W 005°13'2211.2
2016-Jun-23 05:34N 54°25' W 005°05'1212.4
2016-Jun-23 04:34N 54°13' W 004°60'3812.1
2016-Jun-23 01:25N 53°45' W 004°15'1012.0
2016-Jun-23 00:33N 53°40' W 004°00'1111.2
2016-Jun-22 23:33N 53°34' W 003°44'9 9.5
2016-Jun-22 22:33N 53°32' W 003°28'6 6.2
2016-Jun-22 21:32N 53°27' W 003°21'0 0.0
2016-Jun-22 20:32N 53°27' W 003°21'0 0.0
2016-Jun-22 19:32N 53°27' W 003°21'0 0.1
2016-Jun-22 18:32N 53°27' W 003°21'0 0.1
2016-Jun-22 17:29N 53°28' W 003°21'0 0.0
2016-Jun-22 16:32N 53°27' W 003°21'5 5.3
2016-Jun-22 15:33N 53°31' W 003°15'1212.2
2016-Jun-22 14:33N 53°23' W 002°60'5 5.4
2016-Jun-22 13:33N 53°18' W 002°55'5 4.6
2016-Jun-22 12:33N 53°18' W 002°48'3 3.0
2016-Jun-22 11:33N 53°20' W 002°45'0 0.0
2016-Jun-22 10:17N 53°20' W 002°45'0 0.0
2016-Jun-22 09:32N 53°20' W 002°45'0 0.0
2016-Jun-22 08:32N 53°20' W 002°45'0 0.0
2016-Jun-22 07:32N 53°20' W 002°45'0 0.0
2016-Jun-22 06:32N 53°20' W 002°45'0 0.0
2016-Jun-22 05:29N 53°20' W 002°45'0 0.0
2016-Jun-22 04:32N 53°20' W 002°45'0 0.0
2016-Jun-22 03:32N 53°20' W 002°45'0 0.0
2016-Jun-22 02:29N 53°20' W 002°45'0 0.0
2016-Jun-22 01:32N 53°20' W 002°45'0 0.0
2016-Jun-22 00:29N 53°20' W 002°45'0 0.0
2016-Jun-21 23:32N 53°20' W 002°45'0 0.0
2016-Jun-21 22:32N 53°20' W 002°45'0 0.0
2016-Jun-21 21:32N 53°20' W 002°45'0 0.0
2016-Jun-21 20:32N 53°20' W 002°45'0 0.0
2016-Jun-21 19:29N 53°20' W 002°45'0 0.0
2016-Jun-21 18:32N 53°20' W 002°45'0 0.0
2016-Jun-21 17:32N 53°20' W 002°45'0 0.0
2016-Jun-21 16:32N 53°20' W 002°45'0 0.0
2016-Jun-21 15:32N 53°20' W 002°45'0 0.0
2016-Jun-21 14:32N 53°20' W 002°45'0 0.0
2016-Jun-21 13:32N 53°20' W 002°45'0 0.0
2016-Jun-21 12:32N 53°20' W 002°45'  
Track history (hours):
 
Tides and Currents Weather Stations Pressure Air Temp Water Temp Dewpoint Dewpoint Depression Visibility Wind Speed Wind Dir Waves Ship Positions

MV Moseldijk

Last reported at 2016-Jul-01 12:28 UTC. Time now 2016-Jul-01 15:29 UTC.
Position N 50°04' W 005°00'.

Length 90 m; draft 4.2 m.

Type: Cargo ship. MMSI: 246644000.

Date/timePositionNaut miles runAvg speedWind from/ knotsBaromVisibWave heightAir tempDewpointWater temp
2016-Jul-01 12:28N 50°04' W 005°00'0 0.0
2016-Jul-01 04:22N 50°04' W 005°00'0 0.0
2016-Jul-01 02:31N 50°04' W 005°00'0 0.0
2016-Jul-01 01:19N 50°04' W 005°00'0 0.0
2016-Jun-30 23:16N 50°04' W 005°00'0 0.0
2016-Jun-30 18:10N 50°04' W 005°00'0 0.0
2016-Jun-30 17:10N 50°04' W 005°00'0 0.0
2016-Jun-30 15:28N 50°04' W 005°00'0 0.0
2016-Jun-30 14:25N 50°04' W 005°00'0 0.0
2016-Jun-30 13:31N 50°04' W 005°00'0 0.0
2016-Jun-30 12:31N 50°04' W 005°00'0 0.0
2016-Jun-30 10:22N 50°04' W 005°00'0 0.0
2016-Jun-30 09:16N 50°04' W 005°00'0 0.0
2016-Jun-30 08:31N 50°04' W 005°00'0 0.0
2016-Jun-30 07:25N 50°04' W 005°00'0 0.0
2016-Jun-30 06:31N 50°04' W 005°00'0 0.0
2016-Jun-30 05:22N 50°04' W 005°00'0 0.0
2016-Jun-30 04:31N 50°04' W 005°00'0 0.0
2016-Jun-30 03:31N 50°04' W 005°00'0 0.0
2016-Jun-30 00:28N 50°04' W 005°00'0 0.0
2016-Jun-29 23:25N 50°04' W 005°00'0 0.0
2016-Jun-29 22:31N 50°04' W 005°00'0 0.0
2016-Jun-29 20:31N 50°04' W 005°00'0 0.0
2016-Jun-29 16:22N 50°04' W 005°00'0 0.0
2016-Jun-29 15:04N 50°04' W 005°00'0 0.0
2016-Jun-29 14:22N 50°04' W 005°00'0 0.0
2016-Jun-29 13:31N 50°04' W 005°00'0 0.0
2016-Jun-29 12:28N 50°04' W 005°00'0 0.0
2016-Jun-29 11:13N 50°04' W 005°00'0 0.0
2016-Jun-29 10:25N 50°04' W 005°00'0 0.0
2016-Jun-29 09:10N 50°04' W 005°00'0 0.0
2016-Jun-29 06:04N 50°04' W 005°00'0 0.0
2016-Jun-29 02:31N 50°04' W 005°00'0 0.0
2016-Jun-29 01:31N 50°04' W 005°00'0 0.0
2016-Jun-28 13:25N 50°04' W 005°00'0 0.1
2016-Jun-28 12:28N 50°04' W 005°00'0 0.0
2016-Jun-28 11:25N 50°04' W 005°00'0 0.0
2016-Jun-28 10:31N 50°04' W 005°00'0 0.0
2016-Jun-28 09:28N 50°04' W 005°00'0 0.0
2016-Jun-28 08:28N 50°04' W 005°00'0 0.0
2016-Jun-28 07:31N 50°04' W 005°00'0 0.1
2016-Jun-28 06:22N 50°04' W 005°00'0 0.0
2016-Jun-28 00:22N 50°04' W 005°00'0 0.0
2016-Jun-27 23:16N 50°04' W 005°00'0 0.0
2016-Jun-27 22:28N 50°04' W 005°00'0 0.0
2016-Jun-27 21:28N 50°04' W 005°00'0 0.0
2016-Jun-27 17:28N 50°04' W 005°00'3 3.8
2016-Jun-27 16:33N 50°01' W 005°02'252 7.6
2016-Jun-26 07:33N 54°13' W 005°20'8 7.8
2016-Jun-26 06:33N 54°20' W 005°18'7 7.1
2016-Jun-26 05:33N 54°27' W 005°17'7 6.6
2016-Jun-26 04:33N 54°34' W 005°17'7 7.0
2016-Jun-26 03:34N 54°41' W 005°16'8 7.8
2016-Jun-26 02:34N 54°49' W 005°16'8 8.5
2016-Jun-26 01:33N 54°57' W 005°15'  
2016-Jun-23 14:04N 55°37' W 004°47'5 8.7
2016-Jun-23 13:30N 55°38' W 004°56'1 1.3
2016-Jun-23 12:30N 55°38' W 004°58'3311.0
2016-Jun-23 09:33N 55°06' W 005°10'10 9.8
2016-Jun-23 08:34N 54°57' W 005°16'1010.0
2016-Jun-23 07:34N 54°47' W 005°13'2211.2
2016-Jun-23 05:34N 54°25' W 005°05'1212.4
2016-Jun-23 04:34N 54°13' W 004°60'3812.1
2016-Jun-23 01:25N 53°45' W 004°15'1012.0
2016-Jun-23 00:33N 53°40' W 004°00'1111.2
2016-Jun-22 23:33N 53°34' W 003°44'9 9.5
2016-Jun-22 22:33N 53°32' W 003°28'6 6.2
2016-Jun-22 21:32N 53°27' W 003°21'0 0.0
2016-Jun-22 20:32N 53°27' W 003°21'0 0.0
2016-Jun-22 19:32N 53°27' W 003°21'0 0.1
2016-Jun-22 18:32N 53°27' W 003°21'0 0.1
2016-Jun-22 17:29N 53°28' W 003°21'0 0.0
2016-Jun-22 16:32N 53°27' W 003°21'5 5.3
2016-Jun-22 15:33N 53°31' W 003°15'1212.2
2016-Jun-22 14:33N 53°23' W 002°60'5 5.4
2016-Jun-22 13:33N 53°18' W 002°55'5 4.6
2016-Jun-22 12:33N 53°18' W 002°48'3 3.0
2016-Jun-22 11:33N 53°20' W 002°45'0 0.0
2016-Jun-22 10:17N 53°20' W 002°45'0 0.0
2016-Jun-22 09:32N 53°20' W 002°45'0 0.0
2016-Jun-22 08:32N 53°20' W 002°45'0 0.0
2016-Jun-22 07:32N 53°20' W 002°45'0 0.0
2016-Jun-22 06:32N 53°20' W 002°45'0 0.0
2016-Jun-22 05:29N 53°20' W 002°45'0 0.0
2016-Jun-22 04:32N 53°20' W 002°45'0 0.0
2016-Jun-22 03:32N 53°20' W 002°45'0 0.0
2016-Jun-22 02:29N 53°20' W 002°45'0 0.0
2016-Jun-22 01:32N 53°20' W 002°45'0 0.0
2016-Jun-22 00:29N 53°20' W 002°45'0 0.0
2016-Jun-21 23:32N 53°20' W 002°45'0 0.0
2016-Jun-21 22:32N 53°20' W 002°45'0 0.0
2016-Jun-21 21:32N 53°20' W 002°45'0 0.0
2016-Jun-21 20:32N 53°20' W 002°45'0 0.0
2016-Jun-21 19:29N 53°20' W 002°45'0 0.0
2016-Jun-21 18:32N 53°20' W 002°45'0 0.0
2016-Jun-21 17:32N 53°20' W 002°45'0 0.0
2016-Jun-21 16:32N 53°20' W 002°45'0 0.0
2016-Jun-21 15:32N 53°20' W 002°45'0 0.0
2016-Jun-21 14:32N 53°20' W 002°45'0 0.0
2016-Jun-21 13:32N 53°20' W 002°45'0 0.0
2016-Jun-21 12:32N 53°20' W 002°45'  

Dump ship's entire track history